Tala, Argentina
Current Conditions -  °F | °C
As of 12:00 AM on Saturday 20 Dec 2014 (Local Time) from SANT Reporting Station
Clear Clear  
Wind Chill: 75°   Ceiling: Unl
Heat Index: 75°   Visibility: 6mi
Dew Point: 70°   Wind: 7mph
Humidity: 83%   Direction: 270°W
Pressure: 29.59"   Gusts: NA
Location:  26.12°S, 65.28°W
Report Text: SANT 200300Z 27006KT CAVOK 24/21 Q1002
Loading
Personal Weather Stations






























Interactive Weather Map New forecast layout! Learn more

10-Day Weather Forecast

Advertisements
Track Severe Weather on mobile